sensor_id;sensor_type;location;lat;lon;timestamp;P1;durP1;ratioP1;P2;durP2;ratioP2
50337;SDS011;46221;51.178;5.900;2023-08-01T00:00:24;1.30;;;0.57;;
50337;SDS011;46221;51.178;5.900;2023-08-01T00:02:50;1.10;;;0.60;;
50337;SDS011;46221;51.178;5.900;2023-08-01T00:05:17;1.83;;;0.68;;
50337;SDS011;46221;51.178;5.900;2023-08-01T00:07:44;1.38;;;0.50;;
50337;SDS011;46221;51.178;5.900;2023-08-01T00:10:10;1.40;;;0.80;;
50337;SDS011;46221;51.178;5.900;2023-08-01T00:12:36;1.17;;;0.47;;
50337;SDS011;46221;51.178;5.900;2023-08-01T00:15:03;0.73;;;0.40;;
50337;SDS011;46221;51.178;5.900;2023-08-01T00:17:30;1.63;;;0.60;;
50337;SDS011;46221;51.178;5.900;2023-08-01T00:19:56;1.00;;;0.43;;
50337;SDS011;46221;51.178;5.900;2023-08-01T00:22:22;0.80;;;0.30;;
50337;SDS011;46221;51.178;5.900;2023-08-01T00:24:49;1.67;;;0.52;;
50337;SDS011;46221;51.178;5.900;2023-08-01T00:27:15;1.20;;;0.50;;
50337;SDS011;46221;51.178;5.900;2023-08-01T00:29:42;0.75;;;0.40;;
50337;SDS011;46221;51.178;5.900;2023-08-01T00:32:08;1.08;;;0.60;;
50337;SDS011;46221;51.178;5.900;2023-08-01T00:34:34;1.20;;;0.60;;
50337;SDS011;46221;51.178;5.900;2023-08-01T00:37:01;0.75;;;0.40;;
50337;SDS011;46221;51.178;5.900;2023-08-01T00:39:27;2.17;;;0.95;;
50337;SDS011;46221;51.178;5.900;2023-08-01T00:41:53;0.93;;;0.40;;
50337;SDS011;46221;51.178;5.900;2023-08-01T00:44:20;1.20;;;0.40;;
50337;SDS011;46221;51.178;5.900;2023-08-01T00:46:47;1.02;;;0.57;;
50337;SDS011;46221;51.178;5.900;2023-08-01T00:49:13;1.70;;;0.57;;
50337;SDS011;46221;51.178;5.900;2023-08-01T00:51:40;2.80;;;0.70;;
50337;SDS011;46221;51.178;5.900;2023-08-01T00:54:07;1.90;;;0.45;;
50337;SDS011;46221;51.178;5.900;2023-08-01T00:56:33;1.48;;;0.50;;
50337;SDS011;46221;51.178;5.900;2023-08-01T00:59:00;1.15;;;0.40;;
50337;SDS011;46221;51.178;5.900;2023-08-01T01:01:26;1.63;;;0.60;;
50337;SDS011;46221;51.178;5.900;2023-08-01T01:03:53;1.20;;;0.70;;
50337;SDS011;46221;51.178;5.900;2023-08-01T01:06:26;1.02;;;0.43;;
50337;SDS011;46221;51.178;5.900;2023-08-01T01:08:54;1.48;;;0.40;;
50337;SDS011;46221;51.178;5.900;2023-08-01T01:11:21;0.93;;;0.50;;
50337;SDS011;46221;51.178;5.900;2023-08-01T01:13:48;1.70;;;0.65;;
50337;SDS011;46221;51.178;5.900;2023-08-01T01:16:14;1.75;;;0.60;;
50337;SDS011;46221;51.178;5.900;2023-08-01T01:18:40;1.58;;;0.60;;
50337;SDS011;46221;51.178;5.900;2023-08-01T01:21:07;1.30;;;0.70;;
50337;SDS011;46221;51.178;5.900;2023-08-01T01:23:33;0.95;;;0.45;;
50337;SDS011;46221;51.178;5.900;2023-08-01T01:26:00;1.58;;;0.70;;
50337;SDS011;46221;51.178;5.900;2023-08-01T01:28:26;1.65;;;0.60;;
50337;SDS011;46221;51.178;5.900;2023-08-01T01:30:53;1.58;;;0.55;;
50337;SDS011;46221;51.178;5.900;2023-08-01T01:33:20;1.40;;;0.70;;
50337;SDS011;46221;51.178;5.900;2023-08-01T01:35:47;1.10;;;0.60;;
50337;SDS011;46221;51.178;5.900;2023-08-01T01:38:13;1.30;;;0.52;;
50337;SDS011;46221;51.178;5.900;2023-08-01T01:40:39;1.80;;;0.70;;
50337;SDS011;46221;51.178;5.900;2023-08-01T01:43:06;1.40;;;0.93;;
50337;SDS011;46221;51.178;5.900;2023-08-01T01:45:32;0.93;;;0.50;;
50337;SDS011;46221;51.178;5.900;2023-08-01T01:47:59;1.77;;;0.60;;
50337;SDS011;46221;51.178;5.900;2023-08-01T01:50:25;1.42;;;0.70;;
50337;SDS011;46221;51.178;5.900;2023-08-01T01:52:54;1.90;;;0.93;;
50337;SDS011;46221;51.178;5.900;2023-08-01T01:55:20;1.73;;;0.80;;
50337;SDS011;46221;51.178;5.900;2023-08-01T01:57:47;1.25;;;0.60;;
50337;SDS011;46221;51.178;5.900;2023-08-01T02:00:13;1.65;;;0.80;;
50337;SDS011;46221;51.178;5.900;2023-08-01T02:02:40;1.45;;;0.70;;
50337;SDS011;46221;51.178;5.900;2023-08-01T02:05:06;2.13;;;1.00;;
50337;SDS011;46221;51.178;5.900;2023-08-01T02:07:33;2.10;;;0.82;;
50337;SDS011;46221;51.178;5.900;2023-08-01T02:10:00;2.35;;;1.20;;
50337;SDS011;46221;51.178;5.900;2023-08-01T02:12:27;1.55;;;0.80;;
50337;SDS011;46221;51.178;5.900;2023-08-01T02:14:53;2.67;;;1.00;;
50337;SDS011;46221;51.178;5.900;2023-08-01T02:17:19;2.42;;;1.10;;
50337;SDS011;46221;51.178;5.900;2023-08-01T02:19:46;3.10;;;1.08;;
50337;SDS011;46221;51.178;5.900;2023-08-01T02:22:12;3.00;;;1.00;;
50337;SDS011;46221;51.178;5.900;2023-08-01T02:24:39;2.10;;;1.10;;
50337;SDS011;46221;51.178;5.900;2023-08-01T02:27:05;2.72;;;1.50;;
50337;SDS011;46221;51.178;5.900;2023-08-01T02:29:31;2.67;;;1.55;;
50337;SDS011;46221;51.178;5.900;2023-08-01T02:31:58;2.30;;;1.38;;
50337;SDS011;46221;51.178;5.900;2023-08-01T02:34:24;2.83;;;1.58;;
50337;SDS011;46221;51.178;5.900;2023-08-01T02:36:51;2.45;;;1.40;;
50337;SDS011;46221;51.178;5.900;2023-08-01T02:39:18;3.08;;;1.42;;
50337;SDS011;46221;51.178;5.900;2023-08-01T02:41:44;2.90;;;1.60;;
50337;SDS011;46221;51.178;5.900;2023-08-01T02:44:11;2.30;;;1.35;;
50337;SDS011;46221;51.178;5.900;2023-08-01T02:46:37;2.90;;;1.63;;
50337;SDS011;46221;51.178;5.900;2023-08-01T02:49:04;2.80;;;1.88;;
50337;SDS011;46221;51.178;5.900;2023-08-01T02:51:30;3.28;;;2.00;;
50337;SDS011;46221;51.178;5.900;2023-08-01T02:53:56;3.85;;;2.20;;
50337;SDS011;46221;51.178;5.900;2023-08-01T02:56:23;3.53;;;2.10;;
50337;SDS011;46221;51.178;5.900;2023-08-01T02:58:50;4.05;;;2.65;;
50337;SDS011;46221;51.178;5.900;2023-08-01T03:01:18;4.38;;;2.38;;
50337;SDS011;46221;51.178;5.900;2023-08-01T03:03:44;5.22;;;2.33;;
50337;SDS011;46221;51.178;5.900;2023-08-01T03:06:11;4.05;;;2.58;;
50337;SDS011;46221;51.178;5.900;2023-08-01T03:08:38;4.57;;;3.05;;
50337;SDS011;46221;51.178;5.900;2023-08-01T03:11:06;3.50;;;2.60;;
50337;SDS011;46221;51.178;5.900;2023-08-01T03:13:32;4.38;;;2.50;;
50337;SDS011;46221;51.178;5.900;2023-08-01T03:16:01;4.65;;;3.00;;
50337;SDS011;46221;51.178;5.900;2023-08-01T03:18:27;5.20;;;2.67;;
50337;SDS011;46221;51.178;5.900;2023-08-01T03:20:54;4.28;;;3.05;;
50337;SDS011;46221;51.178;5.900;2023-08-01T03:23:20;4.28;;;2.75;;
50337;SDS011;46221;51.178;5.900;2023-08-01T03:25:47;6.40;;;3.35;;
50337;SDS011;46221;51.178;5.900;2023-08-01T03:28:13;4.72;;;2.97;;
50337;SDS011;46221;51.178;5.900;2023-08-01T03:30:40;5.65;;;2.70;;
50337;SDS011;46221;51.178;5.900;2023-08-01T03:33:06;5.07;;;2.75;;
50337;SDS011;46221;51.178;5.900;2023-08-01T03:35:33;4.43;;;2.72;;
50337;SDS011;46221;51.178;5.900;2023-08-01T03:37:59;4.28;;;2.90;;
50337;SDS011;46221;51.178;5.900;2023-08-01T03:40:26;4.57;;;2.72;;
50337;SDS011;46221;51.178;5.900;2023-08-01T03:42:52;5.60;;;2.80;;
50337;SDS011;46221;51.178;5.900;2023-08-01T03:45:19;4.15;;;2.80;;
50337;SDS011;46221;51.178;5.900;2023-08-01T03:47:45;4.45;;;2.78;;
50337;SDS011;46221;51.178;5.900;2023-08-01T03:50:11;3.97;;;3.00;;
50337;SDS011;46221;51.178;5.900;2023-08-01T03:52:39;4.20;;;2.83;;
50337;SDS011;46221;51.178;5.900;2023-08-01T03:55:06;3.33;;;2.33;;
50337;SDS011;46221;51.178;5.900;2023-08-01T03:57:32;4.05;;;2.50;;
50337;SDS011;46221;51.178;5.900;2023-08-01T04:00:00;3.75;;;2.45;;
50337;SDS011;46221;51.178;5.900;2023-08-01T04:02:27;3.95;;;3.03;;
50337;SDS011;46221;51.178;5.900;2023-08-01T04:04:53;6.20;;;3.10;;
50337;SDS011;46221;51.178;5.900;2023-08-01T04:07:20;3.92;;;2.67;;
50337;SDS011;46221;51.178;5.900;2023-08-01T04:09:46;5.07;;;2.58;;
50337;SDS011;46221;51.178;5.900;2023-08-01T04:12:12;3.83;;;2.70;;
50337;SDS011;46221;51.178;5.900;2023-08-01T04:14:39;4.28;;;2.53;;
50337;SDS011;46221;51.178;5.900;2023-08-01T04:17:05;4.72;;;2.25;;
50337;SDS011;46221;51.178;5.900;2023-08-01T04:19:32;4.72;;;2.88;;
50337;SDS011;46221;51.178;5.900;2023-08-01T04:21:58;4.28;;;2.67;;
50337;SDS011;46221;51.178;5.900;2023-08-01T04:24:24;3.40;;;2.45;;
50337;SDS011;46221;51.178;5.900;2023-08-01T04:26:53;4.65;;;2.75;;
50337;SDS011;46221;51.178;5.900;2023-08-01T04:29:20;3.83;;;2.78;;
50337;SDS011;46221;51.178;5.900;2023-08-01T04:31:46;4.38;;;2.80;;
50337;SDS011;46221;51.178;5.900;2023-08-01T04:34:13;3.67;;;2.45;;
50337;SDS011;46221;51.178;5.900;2023-08-01T04:36:39;4.70;;;2.53;;
50337;SDS011;46221;51.178;5.900;2023-08-01T04:39:06;3.10;;;1.88;;
50337;SDS011;46221;51.178;5.900;2023-08-01T04:41:32;3.17;;;1.98;;
50337;SDS011;46221;51.178;5.900;2023-08-01T04:43:58;3.30;;;2.00;;
50337;SDS011;46221;51.178;5.900;2023-08-01T04:46:25;3.58;;;2.08;;
50337;SDS011;46221;51.178;5.900;2023-08-01T04:48:51;3.90;;;2.20;;
50337;SDS011;46221;51.178;5.900;2023-08-01T04:51:18;3.53;;;2.03;;
50337;SDS011;46221;51.178;5.900;2023-08-01T04:53:44;3.83;;;2.30;;
50337;SDS011;46221;51.178;5.900;2023-08-01T04:56:10;4.07;;;2.33;;
50337;SDS011;46221;51.178;5.900;2023-08-01T04:58:37;4.07;;;2.60;;
50337;SDS011;46221;51.178;5.900;2023-08-01T05:01:03;3.35;;;2.22;;
50337;SDS011;46221;51.178;5.900;2023-08-01T05:03:29;3.75;;;2.15;;
50337;SDS011;46221;51.178;5.900;2023-08-01T05:05:56;3.53;;;2.22;;
50337;SDS011;46221;51.178;5.900;2023-08-01T05:08:22;4.40;;;2.67;;
50337;SDS011;46221;51.178;5.900;2023-08-01T05:10:49;4.47;;;2.08;;
50337;SDS011;46221;51.178;5.900;2023-08-01T05:13:16;3.30;;;2.00;;
50337;SDS011;46221;51.178;5.900;2023-08-01T05:15:44;4.25;;;2.00;;
50337;SDS011;46221;51.178;5.900;2023-08-01T05:18:13;3.28;;;2.15;;
50337;SDS011;46221;51.178;5.900;2023-08-01T05:20:42;4.43;;;2.40;;
50337;SDS011;46221;51.178;5.900;2023-08-01T05:23:10;4.35;;;2.28;;
50337;SDS011;46221;51.178;5.900;2023-08-01T05:25:36;4.38;;;1.83;;
50337;SDS011;46221;51.178;5.900;2023-08-01T05:28:03;3.75;;;2.35;;
50337;SDS011;46221;51.178;5.900;2023-08-01T05:30:29;4.15;;;2.47;;
50337;SDS011;46221;51.178;5.900;2023-08-01T05:32:55;4.10;;;2.40;;
50337;SDS011;46221;51.178;5.900;2023-08-01T05:35:22;4.22;;;2.30;;
50337;SDS011;46221;51.178;5.900;2023-08-01T05:37:48;4.45;;;2.20;;
50337;SDS011;46221;51.178;5.900;2023-08-01T05:40:15;4.45;;;2.20;;
50337;SDS011;46221;51.178;5.900;2023-08-01T05:42:41;3.17;;;2.00;;
50337;SDS011;46221;51.178;5.900;2023-08-01T05:45:08;3.88;;;2.28;;
50337;SDS011;46221;51.178;5.900;2023-08-01T05:47:34;4.55;;;2.03;;
50337;SDS011;46221;51.178;5.900;2023-08-01T05:50:03;3.92;;;2.25;;
50337;SDS011;46221;51.178;5.900;2023-08-01T05:52:29;3.08;;;1.92;;
50337;SDS011;46221;51.178;5.900;2023-08-01T05:54:56;3.75;;;2.40;;
50337;SDS011;46221;51.178;5.900;2023-08-01T05:57:22;3.00;;;1.92;;
50337;SDS011;46221;51.178;5.900;2023-08-01T05:59:49;4.22;;;2.35;;
50337;SDS011;46221;51.178;5.900;2023-08-01T06:02:15;4.00;;;2.30;;
50337;SDS011;46221;51.178;5.900;2023-08-01T06:04:41;4.80;;;2.30;;
50337;SDS011;46221;51.178;5.900;2023-08-01T06:07:08;4.68;;;2.55;;
50337;SDS011;46221;51.178;5.900;2023-08-01T06:09:34;3.80;;;2.35;;
50337;SDS011;46221;51.178;5.900;2023-08-01T06:12:00;4.10;;;2.80;;
50337;SDS011;46221;51.178;5.900;2023-08-01T06:14:27;5.10;;;2.80;;
50337;SDS011;46221;51.178;5.900;2023-08-01T06:16:53;6.97;;;3.08;;
50337;SDS011;46221;51.178;5.900;2023-08-01T06:19:20;6.43;;;3.25;;
50337;SDS011;46221;51.178;5.900;2023-08-01T06:21:46;5.28;;;2.88;;
50337;SDS011;46221;51.178;5.900;2023-08-01T06:24:12;5.05;;;2.63;;
50337;SDS011;46221;51.178;5.900;2023-08-01T06:26:39;4.00;;;2.72;;
50337;SDS011;46221;51.178;5.900;2023-08-01T06:29:06;7.13;;;3.50;;
50337;SDS011;46221;51.178;5.900;2023-08-01T06:31:32;5.07;;;2.95;;
50337;SDS011;46221;51.178;5.900;2023-08-01T06:33:59;5.03;;;2.78;;
50337;SDS011;46221;51.178;5.900;2023-08-01T06:36:25;6.20;;;3.47;;
50337;SDS011;46221;51.178;5.900;2023-08-01T06:38:52;4.13;;;2.83;;
50337;SDS011;46221;51.178;5.900;2023-08-01T06:41:18;6.20;;;3.53;;
50337;SDS011;46221;51.178;5.900;2023-08-01T06:43:44;7.72;;;3.63;;
50337;SDS011;46221;51.178;5.900;2023-08-01T06:46:11;5.50;;;2.97;;
50337;SDS011;46221;51.178;5.900;2023-08-01T06:48:37;5.90;;;3.50;;
50337;SDS011;46221;51.178;5.900;2023-08-01T06:51:04;6.32;;;3.75;;
50337;SDS011;46221;51.178;5.900;2023-08-01T06:53:31;8.38;;;3.60;;
50337;SDS011;46221;51.178;5.900;2023-08-01T06:55:58;5.57;;;2.97;;
50337;SDS011;46221;51.178;5.900;2023-08-01T06:58:24;5.57;;;2.92;;
50337;SDS011;46221;51.178;5.900;2023-08-01T07:00:50;4.40;;;2.97;;
50337;SDS011;46221;51.178;5.900;2023-08-01T07:03:17;4.75;;;3.03;;
50337;SDS011;46221;51.178;5.900;2023-08-01T07:05:44;5.82;;;3.15;;
50337;SDS011;46221;51.178;5.900;2023-08-01T07:08:10;6.00;;;3.13;;
50337;SDS011;46221;51.178;5.900;2023-08-01T07:10:37;5.60;;;2.80;;
50337;SDS011;46221;51.178;5.900;2023-08-01T07:13:03;5.88;;;2.65;;
50337;SDS011;46221;51.178;5.900;2023-08-01T07:15:31;4.32;;;2.88;;
50337;SDS011;46221;51.178;5.900;2023-08-01T07:17:57;5.72;;;3.50;;
50337;SDS011;46221;51.178;5.900;2023-08-01T07:20:24;6.05;;;2.80;;
50337;SDS011;46221;51.178;5.900;2023-08-01T07:22:51;7.40;;;3.28;;
50337;SDS011;46221;51.178;5.900;2023-08-01T07:25:18;4.30;;;2.67;;
50337;SDS011;46221;51.178;5.900;2023-08-01T07:27:45;4.78;;;3.03;;
50337;SDS011;46221;51.178;5.900;2023-08-01T07:30:12;4.90;;;3.03;;
50337;SDS011;46221;51.178;5.900;2023-08-01T07:32:38;4.95;;;2.83;;
50337;SDS011;46221;51.178;5.900;2023-08-01T07:35:05;6.65;;;3.00;;
50337;SDS011;46221;51.178;5.900;2023-08-01T07:37:33;6.28;;;2.67;;
50337;SDS011;46221;51.178;5.900;2023-08-01T07:39:59;5.32;;;3.08;;
50337;SDS011;46221;51.178;5.900;2023-08-01T07:42:25;5.90;;;3.20;;
50337;SDS011;46221;51.178;5.900;2023-08-01T07:44:52;5.22;;;2.75;;
50337;SDS011;46221;51.178;5.900;2023-08-01T07:47:18;5.90;;;2.97;;
50337;SDS011;46221;51.178;5.900;2023-08-01T07:49:44;3.92;;;2.70;;
50337;SDS011;46221;51.178;5.900;2023-08-01T07:52:11;5.60;;;2.92;;
50337;SDS011;46221;51.178;5.900;2023-08-01T07:54:37;5.18;;;2.90;;
50337;SDS011;46221;51.178;5.900;2023-08-01T07:57:04;5.97;;;2.90;;
50337;SDS011;46221;51.178;5.900;2023-08-01T07:59:31;5.50;;;2.83;;
50337;SDS011;46221;51.178;5.900;2023-08-01T08:01:57;6.13;;;3.00;;
50337;SDS011;46221;51.178;5.900;2023-08-01T08:04:24;6.15;;;3.60;;
50337;SDS011;46221;51.178;5.900;2023-08-01T08:06:50;6.28;;;3.10;;
50337;SDS011;46221;51.178;5.900;2023-08-01T08:09:18;6.57;;;2.88;;
50337;SDS011;46221;51.178;5.900;2023-08-01T08:11:44;4.65;;;2.55;;
50337;SDS011;46221;51.178;5.900;2023-08-01T08:14:11;5.80;;;3.03;;
50337;SDS011;46221;51.178;5.900;2023-08-01T08:16:40;6.68;;;3.63;;
50337;SDS011;46221;51.178;5.900;2023-08-01T08:19:07;5.40;;;3.00;;
50337;SDS011;46221;51.178;5.900;2023-08-01T08:21:34;7.75;;;4.07;;
50337;SDS011;46221;51.178;5.900;2023-08-01T08:24:01;5.70;;;2.90;;
50337;SDS011;46221;51.178;5.900;2023-08-01T08:26:27;6.50;;;3.10;;
50337;SDS011;46221;51.178;5.900;2023-08-01T08:28:54;8.85;;;3.65;;
50337;SDS011;46221;51.178;5.900;2023-08-01T08:31:20;7.10;;;3.42;;
50337;SDS011;46221;51.178;5.900;2023-08-01T08:33:46;7.57;;;3.45;;
50337;SDS011;46221;51.178;5.900;2023-08-01T08:36:13;6.32;;;3.33;;
50337;SDS011;46221;51.178;5.900;2023-08-01T08:38:39;6.82;;;3.20;;
50337;SDS011;46221;51.178;5.900;2023-08-01T08:41:10;6.05;;;3.17;;
50337;SDS011;46221;51.178;5.900;2023-08-01T08:43:37;11.43;;;3.45;;
50337;SDS011;46221;51.178;5.900;2023-08-01T08:46:03;8.23;;;3.65;;
50337;SDS011;46221;51.178;5.900;2023-08-01T08:48:30;9.57;;;3.67;;
50337;SDS011;46221;51.178;5.900;2023-08-01T08:50:59;10.05;;;3.65;;
50337;SDS011;46221;51.178;5.900;2023-08-01T08:53:26;11.32;;;3.58;;
50337;SDS011;46221;51.178;5.900;2023-08-01T08:55:52;9.77;;;3.80;;
50337;SDS011;46221;51.178;5.900;2023-08-01T08:58:19;12.73;;;4.07;;
50337;SDS011;46221;51.178;5.900;2023-08-01T09:00:46;9.07;;;3.63;;
50337;SDS011;46221;51.178;5.900;2023-08-01T09:03:12;11.77;;;4.13;;
50337;SDS011;46221;51.178;5.900;2023-08-01T09:05:48;9.07;;;4.07;;
50337;SDS011;46221;51.178;5.900;2023-08-01T09:08:19;8.23;;;3.42;;
50337;SDS011;46221;51.178;5.900;2023-08-01T09:10:46;9.75;;;3.97;;
50337;SDS011;46221;51.178;5.900;2023-08-01T09:13:12;6.95;;;3.65;;
50337;SDS011;46221;51.178;5.900;2023-08-01T09:15:42;10.02;;;4.10;;
50337;SDS011;46221;51.178;5.900;2023-08-01T09:18:11;8.32;;;3.72;;
50337;SDS011;46221;51.178;5.900;2023-08-01T09:20:42;6.88;;;3.17;;
50337;SDS011;46221;51.178;5.900;2023-08-01T09:23:09;8.52;;;3.40;;
50337;SDS011;46221;51.178;5.900;2023-08-01T09:25:36;7.80;;;4.25;;
50337;SDS011;46221;51.178;5.900;2023-08-01T09:28:02;6.78;;;2.92;;
50337;SDS011;46221;51.178;5.900;2023-08-01T09:30:29;5.38;;;3.00;;
50337;SDS011;46221;51.178;5.900;2023-08-01T09:32:55;8.38;;;3.50;;
50337;SDS011;46221;51.178;5.900;2023-08-01T09:35:23;5.80;;;3.00;;
50337;SDS011;46221;51.178;5.900;2023-08-01T09:37:50;6.03;;;2.95;;
50337;SDS011;46221;51.178;5.900;2023-08-01T09:40:16;6.95;;;3.28;;
50337;SDS011;46221;51.178;5.900;2023-08-01T09:42:43;8.57;;;3.00;;
50337;SDS011;46221;51.178;5.900;2023-08-01T09:45:16;6.10;;;3.10;;
50337;SDS011;46221;51.178;5.900;2023-08-01T09:47:43;6.15;;;2.92;;
50337;SDS011;46221;51.178;5.900;2023-08-01T09:50:19;6.97;;;2.95;;
50337;SDS011;46221;51.178;5.900;2023-08-01T09:52:46;6.63;;;3.50;;
50337;SDS011;46221;51.178;5.900;2023-08-01T09:55:25;7.28;;;3.15;;
50337;SDS011;46221;51.178;5.900;2023-08-01T09:57:53;8.18;;;3.05;;
50337;SDS011;46221;51.178;5.900;2023-08-01T10:00:20;9.75;;;3.10;;
50337;SDS011;46221;51.178;5.900;2023-08-01T10:02:47;5.35;;;2.75;;
50337;SDS011;46221;51.178;5.900;2023-08-01T10:05:15;10.38;;;3.05;;
50337;SDS011;46221;51.178;5.900;2023-08-01T10:07:42;6.55;;;3.20;;
50337;SDS011;46221;51.178;5.900;2023-08-01T10:10:09;5.80;;;2.90;;
50337;SDS011;46221;51.178;5.900;2023-08-01T10:12:35;5.28;;;2.60;;
50337;SDS011;46221;51.178;5.900;2023-08-01T10:15:03;5.20;;;2.85;;
50337;SDS011;46221;51.178;5.900;2023-08-01T10:17:30;5.80;;;2.85;;
50337;SDS011;46221;51.178;5.900;2023-08-01T10:19:56;5.13;;;2.83;;
50337;SDS011;46221;51.178;5.900;2023-08-01T10:22:24;4.25;;;2.70;;
50337;SDS011;46221;51.178;5.900;2023-08-01T10:24:52;6.82;;;3.15;;
50337;SDS011;46221;51.178;5.900;2023-08-01T10:27:19;5.40;;;3.03;;
50337;SDS011;46221;51.178;5.900;2023-08-01T10:30:00;6.18;;;2.67;;
50337;SDS011;46221;51.178;5.900;2023-08-01T10:32:36;6.72;;;2.47;;
50337;SDS011;46221;51.178;5.900;2023-08-01T10:35:03;5.13;;;2.45;;
50337;SDS011;46221;51.178;5.900;2023-08-01T10:37:45;5.28;;;2.58;;
50337;SDS011;46221;51.178;5.900;2023-08-01T10:40:17;4.85;;;2.42;;
50337;SDS011;46221;51.178;5.900;2023-08-01T10:42:44;5.82;;;2.85;;
50337;SDS011;46221;51.178;5.900;2023-08-01T10:45:23;4.95;;;2.70;;
50337;SDS011;46221;51.178;5.900;2023-08-01T10:47:52;5.53;;;2.60;;
50337;SDS011;46221;51.178;5.900;2023-08-01T10:50:19;5.88;;;2.85;;
50337;SDS011;46221;51.178;5.900;2023-08-01T10:52:45;5.03;;;2.58;;
50337;SDS011;46221;51.178;5.900;2023-08-01T10:55:12;5.60;;;2.40;;
50337;SDS011;46221;51.178;5.900;2023-08-01T10:57:39;4.15;;;2.38;;
50337;SDS011;46221;51.178;5.900;2023-08-01T11:00:14;4.13;;;2.50;;
50337;SDS011;46221;51.178;5.900;2023-08-01T11:02:48;4.05;;;2.42;;
50337;SDS011;46221;51.178;5.900;2023-08-01T11:05:15;4.93;;;2.70;;
50337;SDS011;46221;51.178;5.900;2023-08-01T11:07:41;4.13;;;2.20;;
50337;SDS011;46221;51.178;5.900;2023-08-01T11:10:08;4.88;;;2.60;;
50337;SDS011;46221;51.178;5.900;2023-08-01T11:12:39;5.55;;;2.85;;
50337;SDS011;46221;51.178;5.900;2023-08-01T11:15:06;4.72;;;2.75;;
50337;SDS011;46221;51.178;5.900;2023-08-01T11:17:38;5.35;;;2.72;;
50337;SDS011;46221;51.178;5.900;2023-08-01T11:20:05;7.32;;;3.00;;
50337;SDS011;46221;51.178;5.900;2023-08-01T11:22:34;5.57;;;2.45;;
50337;SDS011;46221;51.178;5.900;2023-08-01T11:25:00;4.78;;;2.45;;
50337;SDS011;46221;51.178;5.900;2023-08-01T11:27:28;5.43;;;2.30;;
50337;SDS011;46221;51.178;5.900;2023-08-01T11:29:56;4.38;;;2.30;;
50337;SDS011;46221;51.178;5.900;2023-08-01T11:32:32;3.90;;;2.15;;
50337;SDS011;46221;51.178;5.900;2023-08-01T11:37:25;4.03;;;2.13;;
50337;SDS011;46221;51.178;5.900;2023-08-01T11:39:52;4.95;;;2.05;;
50337;SDS011;46221;51.178;5.900;2023-08-01T11:42:18;4.63;;;2.08;;
50337;SDS011;46221;51.178;5.900;2023-08-01T11:44:45;3.20;;;2.03;;
50337;SDS011;46221;51.178;5.900;2023-08-01T11:47:15;3.78;;;1.95;;
50337;SDS011;46221;51.178;5.900;2023-08-01T11:49:45;4.63;;;2.35;;
50337;SDS011;46221;51.178;5.900;2023-08-01T11:52:21;3.50;;;1.65;;
50337;SDS011;46221;51.178;5.900;2023-08-01T11:54:48;3.15;;;1.67;;
50337;SDS011;46221;51.178;5.900;2023-08-01T11:57:14;4.60;;;2.17;;
50337;SDS011;46221;51.178;5.900;2023-08-01T11:59:51;3.90;;;2.00;;
50337;SDS011;46221;51.178;5.900;2023-08-01T12:02:35;4.97;;;2.03;;
50337;SDS011;46221;51.178;5.900;2023-08-01T12:05:02;3.20;;;1.95;;
50337;SDS011;46221;51.178;5.900;2023-08-01T12:07:28;4.22;;;2.13;;
50337;SDS011;46221;51.178;5.900;2023-08-01T12:09:59;5.95;;;2.40;;
50337;SDS011;46221;51.178;5.900;2023-08-01T12:12:26;4.55;;;2.15;;
50337;SDS011;46221;51.178;5.900;2023-08-01T12:14:53;4.40;;;1.88;;
50337;SDS011;46221;51.178;5.900;2023-08-01T12:17:22;4.80;;;2.13;;
50337;SDS011;46221;51.178;5.900;2023-08-01T12:19:51;4.90;;;1.90;;
50337;SDS011;46221;51.178;5.900;2023-08-01T12:22:17;4.78;;;2.28;;
50337;SDS011;46221;51.178;5.900;2023-08-01T12:24:44;4.88;;;2.38;;
50337;SDS011;46221;51.178;5.900;2023-08-01T12:27:11;3.72;;;2.17;;
50337;SDS011;46221;51.178;5.900;2023-08-01T12:29:37;4.63;;;2.05;;
50337;SDS011;46221;51.178;5.900;2023-08-01T12:32:04;4.30;;;2.15;;
50337;SDS011;46221;51.178;5.900;2023-08-01T12:34:30;4.13;;;2.08;;
50337;SDS011;46221;51.178;5.900;2023-08-01T12:36:58;3.75;;;2.03;;
50337;SDS011;46221;51.178;5.900;2023-08-01T12:39:24;4.53;;;2.28;;
50337;SDS011;46221;51.178;5.900;2023-08-01T12:41:53;4.47;;;2.45;;
50337;SDS011;46221;51.178;5.900;2023-08-01T12:44:22;4.93;;;2.05;;
50337;SDS011;46221;51.178;5.900;2023-08-01T12:46:49;5.00;;;2.33;;
50337;SDS011;46221;51.178;5.900;2023-08-01T12:49:15;4.75;;;2.40;;
50337;SDS011;46221;51.178;5.900;2023-08-01T12:51:41;4.22;;;2.10;;
50337;SDS011;46221;51.178;5.900;2023-08-01T12:54:08;4.15;;;2.20;;
50337;SDS011;46221;51.178;5.900;2023-08-01T12:56:34;4.70;;;2.30;;
50337;SDS011;46221;51.178;5.900;2023-08-01T12:59:01;6.13;;;1.98;;
50337;SDS011;46221;51.178;5.900;2023-08-01T13:01:27;3.75;;;1.73;;
50337;SDS011;46221;51.178;5.900;2023-08-01T13:03:53;4.95;;;2.20;;
50337;SDS011;46221;51.178;5.900;2023-08-01T13:06:20;4.88;;;2.10;;
50337;SDS011;46221;51.178;5.900;2023-08-01T13:08:46;4.25;;;2.13;;
50337;SDS011;46221;51.178;5.900;2023-08-01T13:11:13;5.75;;;2.10;;
50337;SDS011;46221;51.178;5.900;2023-08-01T13:13:40;4.03;;;1.92;;
50337;SDS011;46221;51.178;5.900;2023-08-01T13:16:06;4.47;;;1.98;;
50337;SDS011;46221;51.178;5.900;2023-08-01T13:18:33;3.75;;;1.90;;
50337;SDS011;46221;51.178;5.900;2023-08-01T13:21:00;4.15;;;1.83;;
50337;SDS011;46221;51.178;5.900;2023-08-01T13:23:26;4.55;;;2.08;;
50337;SDS011;46221;51.178;5.900;2023-08-01T13:25:55;4.47;;;1.90;;
50337;SDS011;46221;51.178;5.900;2023-08-01T13:28:22;4.53;;;1.95;;
50337;SDS011;46221;51.178;5.900;2023-08-01T13:30:49;4.35;;;1.95;;
50337;SDS011;46221;51.178;5.900;2023-08-01T13:33:15;3.03;;;1.58;;
50337;SDS011;46221;51.178;5.900;2023-08-01T13:35:42;3.38;;;1.70;;
50337;SDS011;46221;51.178;5.900;2023-08-01T13:38:08;4.22;;;1.73;;
50337;SDS011;46221;51.178;5.900;2023-08-01T13:40:35;3.10;;;1.70;;
50337;SDS011;46221;51.178;5.900;2023-08-01T13:43:02;4.68;;;2.13;;
50337;SDS011;46221;51.178;5.900;2023-08-01T13:45:31;4.22;;;2.15;;
50337;SDS011;46221;51.178;5.900;2023-08-01T13:48:01;3.67;;;1.77;;
50337;SDS011;46221;51.178;5.900;2023-08-01T13:50:28;3.55;;;1.50;;
50337;SDS011;46221;51.178;5.900;2023-08-01T13:52:55;4.32;;;1.80;;
50337;SDS011;46221;51.178;5.900;2023-08-01T13:55:21;4.03;;;2.05;;
50337;SDS011;46221;51.178;5.900;2023-08-01T13:57:48;3.20;;;1.67;;
50337;SDS011;46221;51.178;5.900;2023-08-01T14:00:14;3.75;;;1.50;;
50337;SDS011;46221;51.178;5.900;2023-08-01T14:02:41;5.03;;;1.80;;
50337;SDS011;46221;51.178;5.900;2023-08-01T14:05:07;3.92;;;1.88;;
50337;SDS011;46221;51.178;5.900;2023-08-01T14:07:35;4.57;;;2.00;;
50337;SDS011;46221;51.178;5.900;2023-08-01T14:10:01;3.47;;;1.42;;
50337;SDS011;46221;51.178;5.900;2023-08-01T14:12:28;3.20;;;1.33;;
50337;SDS011;46221;51.178;5.900;2023-08-01T14:14:54;4.13;;;1.92;;
50337;SDS011;46221;51.178;5.900;2023-08-01T14:17:20;3.60;;;1.35;;
50337;SDS011;46221;51.178;5.900;2023-08-01T14:19:47;4.13;;;1.80;;
50337;SDS011;46221;51.178;5.900;2023-08-01T14:22:13;2.58;;;1.52;;
50337;SDS011;46221;51.178;5.900;2023-08-01T14:24:41;3.55;;;1.50;;
50337;SDS011;46221;51.178;5.900;2023-08-01T14:27:08;4.03;;;1.60;;
50337;SDS011;46221;51.178;5.900;2023-08-01T14:29:35;4.25;;;2.03;;
50337;SDS011;46221;51.178;5.900;2023-08-01T14:32:01;3.97;;;1.60;;
50337;SDS011;46221;51.178;5.900;2023-08-01T14:34:28;3.40;;;1.77;;
50337;SDS011;46221;51.178;5.900;2023-08-01T14:36:54;3.65;;;1.50;;
50337;SDS011;46221;51.178;5.900;2023-08-01T14:39:20;2.67;;;1.50;;
50337;SDS011;46221;51.178;5.900;2023-08-01T14:41:48;2.60;;;1.40;;
50337;SDS011;46221;51.178;5.900;2023-08-01T14:44:18;4.93;;;1.33;;
50337;SDS011;46221;51.178;5.900;2023-08-01T14:46:46;4.90;;;1.48;;
50337;SDS011;46221;51.178;5.900;2023-08-01T14:49:13;3.83;;;1.80;;